Time;durP1;ratioP1;P1;durP2;ratioP2;P2;SDS_P1;SDS_P2;PMS_P1;PMS_P2;Temp;Humidity;BMP_temperature;BMP_pressure;BME280_temperature;BME280_humidity;BME280_pressure;Samples;Min_cycle;Max_cycle;Signal;HPM_P1;HPM_P2
2023/10/05 00:01:24;;;;;;;;;;;13.60;99.90;;;;;;5044329;28;19931;-33
2023/10/05 00:03:52;;;;;;;;;;;13.60;99.90;;;;;;5040064;28;19932;-33
2023/10/05 00:06:23;;;;;;;;;;;13.60;99.90;;;;;;5041196;28;20369;-33
2023/10/05 00:08:50;;;;;;;;;;;13.60;99.90;;;;;;5041818;28;19925;-33
2023/10/05 00:11:23;;;;;;;;;;;13.60;99.90;;;;;;5048133;28;19925;-33
2023/10/05 00:13:51;;;;;;;;;;;13.60;99.90;;;;;;5034759;28;19925;-33
2023/10/05 00:16:20;;;;;;;;;;;13.60;99.90;;;;;;5049997;28;19924;-34
2023/10/05 00:18:48;;;;;;;;;;;13.60;99.90;;;;;;5052839;28;19925;-34
2023/10/05 00:21:16;;;;;;;;;;;13.60;99.90;;;;;;5053093;28;20011;-33
2023/10/05 00:23:42;;;;;;;;;;;13.50;99.90;;;;;;5042846;28;19933;-33
2023/10/05 00:26:09;;;;;;;;;;;13.60;99.90;;;;;;5038832;28;19925;-32
2023/10/05 00:28:36;;;;;;;;;;;13.60;99.90;;;;;;5043605;28;20370;-32
2023/10/05 00:31:06;;;;;;;;;;;13.60;99.90;;;;;;5048714;28;19932;-33
2023/10/05 00:33:32;;;;;;;;;;;13.70;99.90;;;;;;5035126;28;19975;-33
2023/10/05 00:35:59;;;;;;;;;;;13.60;99.90;;;;;;5034781;28;19995;-33
2023/10/05 00:38:29;;;;;;;;;;;13.60;99.90;;;;;;5048680;28;19968;-33
2023/10/05 00:40:58;;;;;;;;;;;13.70;99.90;;;;;;5052250;28;20003;-33
2023/10/05 00:43:25;;;;;;;;;;;13.70;99.90;;;;;;5049810;28;19924;-33
2023/10/05 00:45:52;;;;;;;;;;;13.70;99.90;;;;;;5034564;28;19929;-33
2023/10/05 00:48:29;;;;;;;;;;;13.70;99.90;;;;;;5054554;28;19925;-34
2023/10/05 00:50:58;;;;;;;;;;;13.70;99.90;;;;;;5038101;28;19925;-33
2023/10/05 00:53:26;;;;;;;;;;;13.70;99.90;;;;;;5047674;28;19924;-33
2023/10/05 00:55:57;;;;;;;;;;;13.70;99.90;;;;;;5047037;28;19925;-33
2023/10/05 00:58:34;;;;;;;;;;;13.70;99.90;;;;;;5035330;28;19925;-34
2023/10/05 01:01:05;;;;;;;;;;;13.70;99.90;;;;;;5039190;28;19931;-33
2023/10/05 01:03:45;;;;;;;;;;;13.70;99.90;;;;;;5043281;28;19925;-33
2023/10/05 01:06:22;;;;;;;;;;;13.70;99.90;;;;;;5048503;28;20373;-34
2023/10/05 01:08:54;;;;;;;;;;;13.70;99.90;;;;;;5026138;28;20028;-33
2023/10/05 01:11:31;;;;;;;;;;;13.70;99.90;;;;;;5033935;28;19925;-33
2023/10/05 01:13:59;;;;;;;;;;;13.70;99.90;;;;;;5054258;28;19978;-32
2023/10/05 01:16:26;;;;;;;;;;;13.80;99.90;;;;;;5036840;28;20308;-33
2023/10/05 01:18:54;;;;;;;;;;;13.80;99.90;;;;;;5044039;28;19925;-33
2023/10/05 01:21:24;;;;;;;;;;;13.70;99.90;;;;;;5051180;28;19924;-33
2023/10/05 01:23:52;;;;;;;;;;;13.80;99.90;;;;;;5032152;28;19932;-33
2023/10/05 01:26:20;;;;;;;;;;;13.80;99.90;;;;;;5034221;28;19925;-33
2023/10/05 01:28:47;;;;;;;;;;;13.80;99.90;;;;;;5043200;28;20395;-33
2023/10/05 01:31:16;;;;;;;;;;;13.80;99.90;;;;;;5045908;28;19929;-33
2023/10/05 01:33:44;;;;;;;;;;;13.80;99.90;;;;;;5052392;28;19925;-33
2023/10/05 01:36:11;;;;;;;;;;;13.80;99.90;;;;;;5043609;28;19929;-33
2023/10/05 01:38:39;;;;;;;;;;;13.80;99.90;;;;;;5033670;28;19925;-33
2023/10/05 01:41:08;;;;;;;;;;;13.80;99.90;;;;;;5043251;28;19936;-33
2023/10/05 01:43:35;;;;;;;;;;;13.80;99.90;;;;;;5046471;28;20011;-32
2023/10/05 01:46:02;;;;;;;;;;;13.70;99.90;;;;;;5044232;28;19925;-32
2023/10/05 01:48:30;;;;;;;;;;;13.80;99.90;;;;;;5050681;28;19924;-33
2023/10/05 01:50:58;;;;;;;;;;;13.80;99.90;;;;;;5052611;28;19979;-33
2023/10/05 01:53:26;;;;;;;;;;;13.80;99.90;;;;;;5020417;28;19925;-33
2023/10/05 01:55:53;;;;;;;;;;;13.80;99.90;;;;;;5042725;28;19925;-33
2023/10/05 01:58:34;;;;;;;;;;;13.80;99.90;;;;;;5043226;28;19924;-33
2023/10/05 02:01:01;;;;;;;;;;;13.80;99.90;;;;;;5039942;28;19925;-32
2023/10/05 02:03:28;;;;;;;;;;;13.80;99.90;;;;;;5014669;28;19932;-34
2023/10/05 02:05:58;;;;;;;;;;;13.80;99.90;;;;;;5031354;28;19929;-33
2023/10/05 02:08:26;;;;;;;;;;;13.80;99.90;;;;;;5041385;28;19929;-33
2023/10/05 02:10:53;;;;;;;;;;;13.80;99.90;;;;;;5041951;28;19925;-32
2023/10/05 02:13:23;;;;;;;;;;;13.80;99.90;;;;;;5053133;28;19925;-34
2023/10/05 02:15:55;;;;;;;;;;;13.80;99.90;;;;;;5038903;28;20464;-33
2023/10/05 02:18:24;;;;;;;;;;;13.80;99.90;;;;;;5022589;28;19925;-32
2023/10/05 02:20:56;;;;;;;;;;;13.80;99.90;;;;;;5031793;28;19959;-33
2023/10/05 02:23:28;;;;;;;;;;;13.70;99.90;;;;;;5034384;28;19925;-31
2023/10/05 02:26:00;;;;;;;;;;;13.70;99.90;;;;;;5042390;28;19956;-32
2023/10/05 02:28:29;;;;;;;;;;;13.70;99.90;;;;;;5041812;28;20384;-32
2023/10/05 02:31:00;;;;;;;;;;;13.70;99.90;;;;;;5033560;28;19969;-32
2023/10/05 02:33:28;;;;;;;;;;;13.70;99.90;;;;;;5051489;28;19971;-32
2023/10/05 02:36:09;;;;;;;;;;;13.60;99.90;;;;;;5033559;28;19935;-35
2023/10/05 02:38:36;;;;;;;;;;;13.70;99.90;;;;;;5040652;28;19925;-32
2023/10/05 02:41:05;;;;;;;;;;;13.70;99.90;;;;;;5044313;28;20388;-32
2023/10/05 02:43:39;;;;;;;;;;;13.70;99.90;;;;;;5046703;28;19925;-32
2023/10/05 02:46:10;;;;;;;;;;;13.70;99.90;;;;;;5042445;28;19929;-32
2023/10/05 02:48:36;;;;;;;;;;;13.70;99.90;;;;;;5050979;28;20011;-32
2023/10/05 02:51:05;;;;;;;;;;;13.70;99.90;;;;;;5035087;28;20380;-32
2023/10/05 02:53:40;;;;;;;;;;;13.70;99.90;;;;;;5040596;28;19933;-31
2023/10/05 02:56:15;;;;;;;;;;;13.70;99.90;;;;;;5037968;28;19924;-31
2023/10/05 02:58:44;;;;;;;;;;;13.70;99.90;;;;;;5048830;28;20328;-32
2023/10/05 03:01:12;;;;;;;;;;;13.70;99.90;;;;;;5033900;28;19926;-33
2023/10/05 03:03:38;;;;;;;;;;;13.70;99.90;;;;;;5036081;28;20027;-32
2023/10/05 03:06:05;;;;;;;;;;;13.70;99.90;;;;;;5032282;28;19964;-32
2023/10/05 03:08:35;;;;;;;;;;;13.70;99.90;;;;;;5048806;28;19928;-32
2023/10/05 03:11:02;;;;;;;;;;;13.70;99.90;;;;;;5046135;28;20002;-32
2023/10/05 03:13:29;;;;;;;;;;;13.70;99.90;;;;;;5046851;28;20351;-31
2023/10/05 03:15:59;;;;;;;;;;;13.70;99.90;;;;;;5032835;28;20358;-33
2023/10/05 03:18:26;;;;;;;;;;;13.70;99.90;;;;;;5032719;28;19929;-32
2023/10/05 03:20:52;;;;;;;;;;;13.70;99.90;;;;;;5030512;28;19933;-32
2023/10/05 03:23:19;;;;;;;;;;;13.70;99.90;;;;;;5043290;28;19925;-32
2023/10/05 03:25:47;;;;;;;;;;;13.70;99.90;;;;;;5031610;28;19929;-32
2023/10/05 03:28:14;;;;;;;;;;;13.70;99.90;;;;;;5039996;28;20383;-32
2023/10/05 03:30:40;;;;;;;;;;;13.70;99.90;;;;;;5042848;28;20373;-32
2023/10/05 03:33:11;;;;;;;;;;;13.70;99.90;;;;;;5031677;28;19925;-32
2023/10/05 03:35:45;;;;;;;;;;;13.60;99.90;;;;;;5041423;28;19925;-33
2023/10/05 03:38:19;;;;;;;;;;;13.60;99.90;;;;;;5046718;28;19932;-32
2023/10/05 03:40:47;;;;;;;;;;;13.60;99.90;;;;;;5037817;28;20024;-32
2023/10/05 03:43:14;;;;;;;;;;;13.60;99.90;;;;;;5033768;28;19929;-32
2023/10/05 03:45:40;;;;;;;;;;;13.60;99.90;;;;;;5030465;28;20430;-31
2023/10/05 03:48:10;;;;;;;;;;;13.60;99.90;;;;;;5024934;28;19951;-31
2023/10/05 03:50:37;;;;;;;;;;;13.50;99.90;;;;;;5049521;28;19924;-32
2023/10/05 03:53:06;;;;;;;;;;;13.60;99.90;;;;;;5035080;28;20008;-32
2023/10/05 03:55:33;;;;;;;;;;;13.60;99.90;;;;;;5031769;28;19961;-32
2023/10/05 03:58:00;;;;;;;;;;;13.50;99.90;;;;;;5037179;28;19925;-33
2023/10/05 04:00:34;;;;;;;;;;;13.60;99.90;;;;;;5033651;28;19971;-32
2023/10/05 04:03:02;;;;;;;;;;;13.50;99.90;;;;;;5042071;28;19973;-32
2023/10/05 04:05:32;;;;;;;;;;;13.50;99.90;;;;;;5040587;28;19925;-32
2023/10/05 04:08:11;;;;;;;;;;;13.50;99.90;;;;;;5035360;28;19957;-32
2023/10/05 04:10:46;;;;;;;;;;;13.50;99.90;;;;;;5039841;28;20303;-33
2023/10/05 04:13:12;;;;;;;;;;;13.50;99.90;;;;;;5043717;28;19929;-32
2023/10/05 04:15:39;;;;;;;;;;;13.50;99.90;;;;;;5030265;28;20308;-32
2023/10/05 04:18:10;;;;;;;;;;;13.50;99.90;;;;;;5032473;28;19932;-32
2023/10/05 04:20:43;;;;;;;;;;;13.50;99.90;;;;;;5080577;28;19932;-32
2023/10/05 04:23:10;;;;;;;;;;;13.50;99.90;;;;;;5049127;28;19925;-32
2023/10/05 04:25:36;;;;;;;;;;;13.40;99.90;;;;;;5039546;28;19979;-33
2023/10/05 04:28:03;;;;;;;;;;;13.50;99.90;;;;;;5033053;28;19925;-33
2023/10/05 04:30:33;;;;;;;;;;;13.40;99.90;;;;;;5047595;28;19932;-32
2023/10/05 04:33:01;;;;;;;;;;;13.40;99.90;;;;;;5049420;28;19925;-33
2023/10/05 04:35:28;;;;;;;;;;;13.50;99.90;;;;;;5042895;28;20027;-33
2023/10/05 04:37:57;;;;;;;;;;;13.40;99.90;;;;;;5029900;28;19941;-32
2023/10/05 04:40:24;;;;;;;;;;;13.40;99.90;;;;;;5042361;28;19947;-32
2023/10/05 04:43:16;;;;;;;;;;;13.40;99.90;;;;;;5033349;28;20332;-32
2023/10/05 04:45:43;;;;;;;;;;;13.30;99.90;;;;;;5017146;28;19925;-32
2023/10/05 04:48:12;;;;;;;;;;;13.30;99.90;;;;;;5041375;28;20005;-32
2023/10/05 04:50:39;;;;;;;;;;;13.30;99.90;;;;;;5039220;28;19928;-31
2023/10/05 04:53:09;;;;;;;;;;;13.20;99.90;;;;;;5031180;28;20150;-33
2023/10/05 04:55:41;;;;;;;;;;;13.20;99.90;;;;;;5036561;28;19931;-32
2023/10/05 04:58:23;;;;;;;;;;;13.30;99.90;;;;;;5049059;28;19987;-34
2023/10/05 05:00:54;;;;;;;;;;;13.20;99.90;;;;;;5040070;28;19928;-33
2023/10/05 05:03:47;;;;;;;;;;;13.30;99.90;;;;;;5041973;28;19970;-33
2023/10/05 05:06:14;;;;;;;;;;;13.30;99.90;;;;;;5043077;28;20301;-33
2023/10/05 05:08:43;;;;;;;;;;;13.30;99.90;;;;;;5041660;28;20380;-32
2023/10/05 05:11:19;;;;;;;;;;;13.30;99.90;;;;;;5041419;28;20372;-33
2023/10/05 05:13:46;;;;;;;;;;;13.30;99.90;;;;;;5037313;28;20361;-33
2023/10/05 05:16:14;;;;;;;;;;;13.30;99.90;;;;;;5052748;28;19925;-33
2023/10/05 05:18:42;;;;;;;;;;;13.30;99.90;;;;;;5047303;28;19925;-33
2023/10/05 05:21:08;;;;;;;;;;;13.40;99.90;;;;;;5041249;28;19932;-33
2023/10/05 05:23:35;;;;;;;;;;;13.40;99.90;;;;;;5043054;28;19925;-33
2023/10/05 05:26:08;;;;;;;;;;;13.40;99.90;;;;;;5047442;28;19991;-33
2023/10/05 05:28:35;;;;;;;;;;;13.40;99.90;;;;;;5030090;28;19972;-33
2023/10/05 05:31:07;;;;;;;;;;;13.40;99.90;;;;;;5032019;28;20348;-33
2023/10/05 05:33:36;;;;;;;;;;;13.40;99.90;;;;;;5049434;28;20319;-32
2023/10/05 05:36:06;;;;;;;;;;;13.40;99.90;;;;;;5051738;28;20373;-32
2023/10/05 05:38:33;;;;;;;;;;;13.40;99.90;;;;;;5039463;28;19933;-33
2023/10/05 05:41:01;;;;;;;;;;;13.50;99.90;;;;;;5067139;28;19925;-33
2023/10/05 05:43:29;;;;;;;;;;;13.40;99.90;;;;;;5054383;28;20276;-33
2023/10/05 05:45:58;;;;;;;;;;;13.50;99.90;;;;;;5034466;28;19925;-33
2023/10/05 05:48:25;;;;;;;;;;;13.50;99.90;;;;;;5032563;28;19931;-32
2023/10/05 05:50:53;;;;;;;;;;;13.50;99.90;;;;;;5040562;28;19928;-32
2023/10/05 05:53:20;;;;;;;;;;;13.50;99.90;;;;;;5049475;28;19975;-33
2023/10/05 05:55:53;;;;;;;;;;;13.50;99.90;;;;;;5049437;28;19974;-32
2023/10/05 05:58:19;;;;;;;;;;;13.50;99.90;;;;;;5039493;28;19925;-31
2023/10/05 06:00:47;;;;;;;;;;;13.50;99.90;;;;;;5036084;28;19951;-31
2023/10/05 06:03:16;;;;;;;;;;;13.60;99.90;;;;;;5036001;28;20321;-32
2023/10/05 06:05:43;;;;;;;;;;;13.60;99.90;;;;;;5029115;28;19926;-32
2023/10/05 06:08:11;;;;;;;;;;;13.60;99.90;;;;;;5031139;28;19974;-31
2023/10/05 06:10:38;;;;;;;;;;;13.60;99.90;;;;;;5031531;28;20329;-32
2023/10/05 06:13:06;;;;;;;;;;;13.60;99.90;;;;;;5033686;28;20298;-32
2023/10/05 06:15:34;;;;;;;;;;;13.60;99.90;;;;;;5050899;28;19925;-32
2023/10/05 06:18:03;;;;;;;;;;;13.60;99.90;;;;;;5041798;28;20008;-32
2023/10/05 06:20:29;;;;;;;;;;;13.60;99.90;;;;;;5036118;28;19925;-32
2023/10/05 06:22:57;;;;;;;;;;;13.70;99.90;;;;;;5035401;28;20304;-31
2023/10/05 06:25:25;;;;;;;;;;;13.70;99.90;;;;;;5050726;28;19972;-32
2023/10/05 06:27:52;;;;;;;;;;;13.70;99.90;;;;;;5051447;28;20395;-34
2023/10/05 06:30:20;;;;;;;;;;;13.70;99.90;;;;;;5044353;28;19990;-32
2023/10/05 06:32:47;;;;;;;;;;;13.70;99.90;;;;;;5063242;28;19925;-32
2023/10/05 06:35:15;;;;;;;;;;;13.80;99.90;;;;;;5043322;28;19925;-32
2023/10/05 06:37:42;;;;;;;;;;;13.80;99.90;;;;;;5033529;28;19925;-32
2023/10/05 06:40:09;;;;;;;;;;;13.80;99.90;;;;;;5034708;28;19925;-32
2023/10/05 06:42:36;;;;;;;;;;;13.90;99.90;;;;;;5033215;28;19932;-32
2023/10/05 06:45:07;;;;;;;;;;;13.90;99.90;;;;;;5066160;28;19983;-31
2023/10/05 06:47:37;;;;;;;;;;;13.90;99.90;;;;;;5035514;28;19987;-32
2023/10/05 06:50:08;;;;;;;;;;;13.90;99.90;;;;;;5033052;28;20426;-32
2023/10/05 06:52:39;;;;;;;;;;;14.00;99.90;;;;;;5037700;28;19947;-32
2023/10/05 06:55:07;;;;;;;;;;;14.00;99.90;;;;;;5034641;28;19933;-33
2023/10/05 06:57:35;;;;;;;;;;;14.00;99.90;;;;;;5025577;28;19931;-32
2023/10/05 07:00:11;;;;;;;;;;;14.10;99.90;;;;;;5035386;28;20016;-32
2023/10/05 07:02:38;;;;;;;;;;;14.10;99.90;;;;;;5040573;28;19972;-32
2023/10/05 07:05:05;;;;;;;;;;;14.10;99.90;;;;;;5042299;28;20023;-32
2023/10/05 07:07:32;;;;;;;;;;;14.20;99.90;;;;;;5037626;28;19925;-33
2023/10/05 07:10:00;;;;;;;;;;;14.20;99.90;;;;;;5031820;28;19929;-32
2023/10/05 07:12:27;;;;;;;;;;;14.20;99.90;;;;;;5029472;28;20300;-32
2023/10/05 07:14:53;;;;;;;;;;;14.30;99.90;;;;;;5031323;28;20368;-32
2023/10/05 07:17:20;;;;;;;;;;;14.30;99.90;;;;;;5031616;28;19929;-32
2023/10/05 07:19:49;;;;;;;;;;;14.30;99.90;;;;;;5032658;28;19929;-32
2023/10/05 07:22:16;;;;;;;;;;;14.30;99.90;;;;;;5028342;28;19925;-32
2023/10/05 07:24:43;;;;;;;;;;;14.30;99.90;;;;;;5031850;28;19932;-34
2023/10/05 07:27:11;;;;;;;;;;;14.40;99.90;;;;;;5032668;28;19929;-32
2023/10/05 07:29:37;;;;;;;;;;;14.40;99.90;;;;;;5031480;28;19929;-31
2023/10/05 07:32:06;;;;;;;;;;;14.50;99.90;;;;;;5031252;28;19925;-32
2023/10/05 07:34:34;;;;;;;;;;;14.40;99.90;;;;;;5030333;28;19925;-32
2023/10/05 07:37:02;;;;;;;;;;;14.50;99.90;;;;;;5032306;28;20443;-32
2023/10/05 07:39:28;;;;;;;;;;;14.50;99.90;;;;;;5030734;28;19925;-32
2023/10/05 07:41:55;;;;;;;;;;;14.60;99.90;;;;;;5031103;28;20377;-33
2023/10/05 07:44:23;;;;;;;;;;;14.70;99.90;;;;;;5031411;28;19948;-32
2023/10/05 07:46:49;;;;;;;;;;;14.70;99.90;;;;;;5032424;28;20289;-32
2023/10/05 07:49:16;;;;;;;;;;;14.70;99.90;;;;;;5031674;28;19932;-33
2023/10/05 07:51:44;;;;;;;;;;;14.70;99.90;;;;;;5030524;28;19925;-34
2023/10/05 07:54:11;;;;;;;;;;;14.80;99.90;;;;;;5032515;28;20016;-34
2023/10/05 07:56:37;;;;;;;;;;;14.80;99.90;;;;;;5031355;28;19931;-33
2023/10/05 07:59:04;;;;;;;;;;;14.80;99.90;;;;;;5030829;28;19925;-34
2023/10/05 08:01:32;;;;;;;;;;;14.90;99.90;;;;;;5032088;28;19925;-35
2023/10/05 08:03:59;;;;;;;;;;;15.00;99.90;;;;;;5031166;28;19991;-33
2023/10/05 08:06:26;;;;;;;;;;;15.00;99.90;;;;;;5031966;28;19925;-33
2023/10/05 08:08:53;;;;;;;;;;;15.10;99.90;;;;;;5029990;28;19929;-33
2023/10/05 08:11:20;;;;;;;;;;;15.10;99.90;;;;;;5031261;28;19979;-33
2023/10/05 08:13:47;;;;;;;;;;;15.10;99.90;;;;;;5031946;28;20468;-32
2023/10/05 08:16:13;;;;;;;;;;;15.20;99.90;;;;;;5031145;28;19979;-33
2023/10/05 08:18:42;;;;;;;;;;;15.20;99.90;;;;;;5030965;28;20005;-34
2023/10/05 08:21:09;;;;;;;;;;;15.20;99.90;;;;;;5030616;28;19925;-33
2023/10/05 08:23:35;;;;;;;;;;;15.30;99.90;;;;;;5031916;28;19948;-33
2023/10/05 08:26:03;;;;;;;;;;;15.40;99.90;;;;;;5031997;28;20273;-33
2023/10/05 08:28:31;;;;;;;;;;;15.40;99.90;;;;;;5030323;28;19925;-34
2023/10/05 08:31:06;;;;;;;;;;;15.50;99.90;;;;;;5031101;28;19929;-33
2023/10/05 08:33:34;;;;;;;;;;;15.50;99.90;;;;;;5067546;28;19925;-33
2023/10/05 08:36:06;;;;;;;;;;;15.60;99.90;;;;;;5035080;28;19925;-33
2023/10/05 08:38:33;;;;;;;;;;;15.60;99.90;;;;;;5035569;28;20404;-33
2023/10/05 08:41:01;;;;;;;;;;;15.60;99.90;;;;;;5034280;28;20393;-33
2023/10/05 08:43:28;;;;;;;;;;;15.70;99.90;;;;;;5035393;28;20331;-33
2023/10/05 08:45:54;;;;;;;;;;;15.70;99.90;;;;;;5035589;28;20393;-33
2023/10/05 08:48:22;;;;;;;;;;;15.80;99.90;;;;;;5034513;28;19929;-33
2023/10/05 08:50:54;;;;;;;;;;;15.80;99.90;;;;;;5034627;28;19925;-33
2023/10/05 08:53:22;;;;;;;;;;;15.80;99.90;;;;;;5033985;28;19925;-33
2023/10/05 08:55:51;;;;;;;;;;;15.80;99.90;;;;;;5034492;28;19929;-33
2023/10/05 08:58:20;;;;;;;;;;;15.80;99.90;;;;;;5035723;28;19925;-33
2023/10/05 09:00:48;;;;;;;;;;;15.80;99.90;;;;;;5034187;28;19951;-33
2023/10/05 09:06:20;;;;;;;;;;;15.80;99.90;;;;;;5110227;27;19926;-31
2023/10/05 09:08:54;;;;;;;;;;;15.80;99.90;;;;;;5109177;28;19959;-31
2023/10/05 09:11:22;;;;;;;;;;;15.80;99.90;;;;;;5109145;28;20015;-31
2023/10/05 09:13:49;;;;;;;;;;;15.80;99.90;;;;;;5109191;28;19924;-31
2023/10/05 09:16:22;;;;;;;;;;;15.80;99.90;;;;;;5109324;28;19950;-31
2023/10/05 09:18:49;;;;;;;;;;;15.80;99.90;;;;;;5108967;28;19928;-31
2023/10/05 09:21:19;;;;;;;;;;;15.90;99.90;;;;;;5108557;28;19943;-33
2023/10/05 09:23:47;;;;;;;;;;;15.90;99.90;;;;;;5109322;28;20276;-31
2023/10/05 09:26:33;;;;;;;;;;;15.90;99.90;;;;;;5108833;28;19931;-31
2023/10/05 09:29:15;;;;;;;;;;;15.90;99.90;;;;;;5108588;28;19927;-33
2023/10/05 09:31:42;;;;;;;;;;;16.00;99.90;;;;;;5089231;28;19962;-31
2023/10/05 09:34:14;;;;;;;;;;;16.00;99.90;;;;;;5088102;28;19928;-32
2023/10/05 09:36:42;;;;;;;;;;;16.10;99.90;;;;;;5088235;28;19925;-31
2023/10/05 09:39:09;;;;;;;;;;;16.20;99.90;;;;;;5088139;28;19924;-31
2023/10/05 09:41:36;;;;;;;;;;;16.20;99.90;;;;;;5088413;28;19970;-31
2023/10/05 09:44:04;;;;;;;;;;;16.20;99.90;;;;;;5105908;28;20294;-32
2023/10/05 09:46:33;;;;;;;;;;;16.30;99.90;;;;;;5109671;28;19977;-33
2023/10/05 09:49:01;;;;;;;;;;;16.30;99.90;;;;;;5109262;28;19924;-32
2023/10/05 09:51:28;;;;;;;;;;;16.30;99.90;;;;;;5109370;28;20396;-31
2023/10/05 09:53:56;;;;;;;;;;;16.40;99.90;;;;;;5107800;28;19924;-32
2023/10/05 09:56:25;;;;;;;;;;;16.40;99.90;;;;;;5108552;28;20296;-31
2023/10/05 09:58:52;;;;;;;;;;;16.40;99.90;;;;;;5108337;28;20372;-34
2023/10/05 10:01:20;;;;;;;;;;;16.40;99.90;;;;;;5109232;28;19924;-34
2023/10/05 10:03:47;;;;;;;;;;;16.40;99.90;;;;;;5094350;28;19969;-30
2023/10/05 10:06:15;;;;;;;;;;;16.40;99.90;;;;;;5087262;28;19928;-31
2023/10/05 10:08:51;;;;;;;;;;;16.40;99.90;;;;;;5087817;28;20331;-32
2023/10/05 10:11:19;;;;;;;;;;;16.40;99.90;;;;;;5088775;28;20356;-32
2023/10/05 10:13:51;;;;;;;;;;;16.40;99.90;;;;;;5100605;28;19924;-32
2023/10/05 10:16:21;;;;;;;;;;;16.40;99.90;;;;;;5088668;28;19925;-30
2023/10/05 10:18:47;;;;;;;;;;;16.50;99.90;;;;;;5074980;28;20270;-32
2023/10/05 10:21:24;;;;;;;;;;;16.40;99.90;;;;;;5075228;28;19971;-32
2023/10/05 10:23:51;;;;;;;;;;;16.50;99.90;;;;;;5074593;28;19924;-32
2023/10/05 10:26:24;;;;;;;;;;;16.50;99.90;;;;;;5085861;28;19929;-31
2023/10/05 10:28:56;;;;;;;;;;;16.40;99.90;;;;;;5074919;28;19932;-31
2023/10/05 10:31:26;;;;;;;;;;;16.50;99.90;;;;;;5073889;28;20019;-31
2023/10/05 10:33:53;;;;;;;;;;;16.50;99.90;;;;;;5087861;28;19924;-31
2023/10/05 10:36:21;;;;;;;;;;;16.50;99.90;;;;;;5082720;28;19966;-31
2023/10/05 10:38:49;;;;;;;;;;;16.50;99.90;;;;;;5073462;28;20375;-31
2023/10/05 10:41:17;;;;;;;;;;;16.50;99.90;;;;;;5073678;28;19925;-31
2023/10/05 10:43:49;;;;;;;;;;;16.50;99.90;;;;;;5076522;28;20308;-29
2023/10/05 10:46:28;;;;;;;;;;;16.50;99.90;;;;;;5095127;28;19950;-31
2023/10/05 10:48:57;;;;;;;;;;;16.40;99.90;;;;;;5095060;28;19957;-32
2023/10/05 10:51:24;;;;;;;;;;;16.40;99.90;;;;;;5093804;28;19973;-31
2023/10/05 10:53:52;;;;;;;;;;;16.40;99.90;;;;;;5092387;28;20288;-30
2023/10/05 10:56:21;;;;;;;;;;;16.40;99.90;;;;;;5094528;28;19924;-32
2023/10/05 10:58:56;;;;;;;;;;;16.30;99.90;;;;;;5093888;28;19927;-33
2023/10/05 11:01:28;;;;;;;;;;;16.30;99.90;;;;;;5093405;28;20010;-32
2023/10/05 11:04:00;;;;;;;;;;;16.20;99.90;;;;;;5091775;28;20432;-34
2023/10/05 11:06:26;;;;;;;;;;;16.20;99.90;;;;;;5072960;28;20034;-33
2023/10/05 11:08:53;;;;;;;;;;;16.10;99.90;;;;;;5072595;28;20360;-31
2023/10/05 11:11:20;;;;;;;;;;;16.10;99.90;;;;;;5072907;28;20534;-31
2023/10/05 11:13:49;;;;;;;;;;;16.00;99.90;;;;;;5073333;28;19972;-31
2023/10/05 11:16:18;;;;;;;;;;;16.00;99.90;;;;;;5074212;28;19928;-31
2023/10/05 11:18:57;;;;;;;;;;;16.00;99.90;;;;;;5083179;28;19924;-30
2023/10/05 11:21:26;;;;;;;;;;;16.00;99.90;;;;;;5093226;28;19940;-33
2023/10/05 11:23:56;;;;;;;;;;;16.00;99.90;;;;;;5092900;28;20358;-30
2023/10/05 11:26:26;;;;;;;;;;;16.00;99.90;;;;;;5092782;28;20008;-30
2023/10/05 11:28:53;;;;;;;;;;;16.00;99.90;;;;;;5083651;28;20019;-30
2023/10/05 11:31:22;;;;;;;;;;;16.10;99.90;;;;;;5073809;28;19932;-30
2023/10/05 11:33:53;;;;;;;;;;;16.10;99.90;;;;;;5073722;28;19924;-30
2023/10/05 11:36:21;;;;;;;;;;;16.10;99.90;;;;;;5073635;28;19929;-29
2023/10/05 11:38:48;;;;;;;;;;;16.10;99.90;;;;;;5077859;28;20372;-31
2023/10/05 11:41:16;;;;;;;;;;;16.20;99.90;;;;;;5093413;28;19978;-30
2023/10/05 11:43:43;;;;;;;;;;;16.30;99.90;;;;;;5086652;28;20372;-31
2023/10/05 11:46:17;;;;;;;;;;;16.50;99.90;;;;;;5091459;28;20380;-30
2023/10/05 11:48:48;;;;;;;;;;;16.70;99.90;;;;;;5085429;28;20364;-29
2023/10/05 11:51:19;;;;;;;;;;;16.90;99.90;;;;;;5083444;28;19928;-31
2023/10/05 11:53:46;;;;;;;;;;;17.20;99.90;;;;;;5093619;28;19924;-32
2023/10/05 11:56:15;;;;;;;;;;;17.30;99.90;;;;;;5089623;28;19997;-29
2023/10/05 11:58:44;;;;;;;;;;;17.30;99.90;;;;;;5073117;28;19928;-30
2023/10/05 12:01:10;;;;;;;;;;;17.40;99.90;;;;;;5105475;28;20359;-32
2023/10/05 12:03:43;;;;;;;;;;;17.50;99.90;;;;;;5071555;28;20391;-30
2023/10/05 12:06:12;;;;;;;;;;;17.60;99.90;;;;;;5072879;28;19931;-30
2023/10/05 12:08:41;;;;;;;;;;;17.80;99.90;;;;;;5073235;28;19999;-30
2023/10/05 12:11:10;;;;;;;;;;;17.90;99.90;;;;;;5074314;28;20368;-29
2023/10/05 12:13:38;;;;;;;;;;;18.00;99.90;;;;;;5088061;28;19925;-31
2023/10/05 12:16:11;;;;;;;;;;;18.10;99.90;;;;;;5113851;27;19928;-30
2023/10/05 12:18:38;;;;;;;;;;;18.10;99.90;;;;;;5090181;28;19932;-30
2023/10/05 12:21:05;;;;;;;;;;;18.10;99.90;;;;;;5080643;28;19993;-30
2023/10/05 12:23:33;;;;;;;;;;;18.20;99.90;;;;;;5091957;28;19931;-31
2023/10/05 12:26:03;;;;;;;;;;;18.30;99.90;;;;;;5080859;28;19935;-31
2023/10/05 12:28:30;;;;;;;;;;;18.40;99.90;;;;;;5083000;28;20015;-30
2023/10/05 12:30:57;;;;;;;;;;;18.40;99.90;;;;;;5073612;28;20019;-30
2023/10/05 12:33:23;;;;;;;;;;;18.50;99.90;;;;;;5087025;28;19978;-31
2023/10/05 12:35:52;;;;;;;;;;;18.60;99.90;;;;;;5090365;28;19932;-30
2023/10/05 12:38:19;;;;;;;;;;;18.60;99.90;;;;;;5072433;28;19935;-31
2023/10/05 12:40:48;;;;;;;;;;;18.60;99.90;;;;;;5071063;28;19985;-31
2023/10/05 12:43:16;;;;;;;;;;;18.60;99.90;;;;;;5071322;28;20484;-31
2023/10/05 12:45:42;;;;;;;;;;;18.70;99.90;;;;;;5072110;28;19925;-31
2023/10/05 12:48:11;;;;;;;;;;;18.70;99.90;;;;;;5074087;28;19931;-30
2023/10/05 12:50:39;;;;;;;;;;;18.70;99.90;;;;;;5091356;28;19995;-30
2023/10/05 12:53:06;;;;;;;;;;;18.60;99.90;;;;;;5091575;28;19994;-31
2023/10/05 12:55:35;;;;;;;;;;;18.60;99.90;;;;;;5092307;28;20406;-31
2023/10/05 12:58:03;;;;;;;;;;;18.60;99.90;;;;;;5090993;28;20376;-31
2023/10/05 13:00:31;;;;;;;;;;;18.60;99.90;;;;;;5092265;28;19977;-31
2023/10/05 13:03:00;;;;;;;;;;;18.60;99.90;;;;;;5091333;28;19924;-31
2023/10/05 13:05:29;;;;;;;;;;;18.60;99.90;;;;;;5076209;28;19924;-31
2023/10/05 13:07:56;;;;;;;;;;;18.50;99.90;;;;;;5091132;28;19979;-31
2023/10/05 13:10:26;;;;;;;;;;;18.50;99.90;;;;;;5089827;28;19925;-32
2023/10/05 13:12:53;;;;;;;;;;;18.50;99.90;;;;;;5088967;28;20015;-32
2023/10/05 13:15:24;;;;;;;;;;;18.50;99.90;;;;;;5089508;28;19928;-32
2023/10/05 13:17:51;;;;;;;;;;;18.50;99.90;;;;;;5073983;28;19928;-31
2023/10/05 13:20:24;;;;;;;;;;;18.70;99.90;;;;;;5086251;28;19928;-31
2023/10/05 13:22:53;;;;;;;;;;;18.80;99.90;;;;;;5071153;28;19946;-31
2023/10/05 13:25:22;;;;;;;;;;;18.80;99.90;;;;;;5083998;28;19928;-31
2023/10/05 13:27:49;;;;;;;;;;;18.80;99.90;;;;;;5089590;28;19969;-31
2023/10/05 13:30:22;;;;;;;;;;;18.80;99.90;;;;;;5091281;28;19931;-31
2023/10/05 13:32:57;;;;;;;;;;;18.80;99.90;;;;;;5091907;28;20014;-31
2023/10/05 13:35:29;;;;;;;;;;;18.80;99.90;;;;;;5090807;28;20014;-31
2023/10/05 13:37:57;;;;;;;;;;;18.80;99.90;;;;;;5091338;28;19930;-31
2023/10/05 13:40:31;;;;;;;;;;;18.80;99.90;;;;;;5072845;28;19925;-31
2023/10/05 13:42:59;;;;;;;;;;;18.90;99.90;;;;;;5071161;28;20300;-31
2023/10/05 13:45:28;;;;;;;;;;;19.00;99.90;;;;;;5069819;28;19928;-31
2023/10/05 13:47:57;;;;;;;;;;;19.20;99.90;;;;;;5087175;28;19939;-31
2023/10/05 13:50:24;;;;;;;;;;;19.30;99.90;;;;;;5119800;27;19925;-31
2023/10/05 13:52:51;;;;;;;;;;;19.40;99.90;;;;;;5117117;27;19928;-32
2023/10/05 13:55:20;;;;;;;;;;;19.50;99.90;;;;;;5094836;28;19954;-32
2023/10/05 13:57:47;;;;;;;;;;;19.60;99.90;;;;;;5081571;28;19925;-32
2023/10/05 14:00:18;;;;;;;;;;;19.50;99.90;;;;;;5080215;28;20015;-32
2023/10/05 14:02:45;;;;;;;;;;;19.50;99.90;;;;;;5092493;28;19963;-32
2023/10/05 14:05:13;;;;;;;;;;;19.40;99.90;;;;;;5089547;28;19928;-34
2023/10/05 14:07:40;;;;;;;;;;;19.40;99.90;;;;;;5082548;28;19932;-32
2023/10/05 14:10:07;;;;;;;;;;;19.40;99.90;;;;;;5095543;28;19928;-31
2023/10/05 14:12:34;;;;;;;;;;;19.40;99.90;;;;;;5075741;28;19978;-33
2023/10/05 14:15:02;;;;;;;;;;;19.50;99.90;;;;;;5078180;28;19985;-33
2023/10/05 14:17:29;;;;;;;;;;;19.50;99.90;;;;;;5094211;28;19928;-32
2023/10/05 14:19:55;;;;;;;;;;;19.50;99.90;;;;;;5091686;28;19940;-33
2023/10/05 14:22:28;;;;;;;;;;;19.40;99.90;;;;;;5079840;28;19928;-33
2023/10/05 14:24:55;;;;;;;;;;;19.40;99.90;;;;;;5084124;28;20276;-31
2023/10/05 14:27:29;;;;;;;;;;;19.30;99.90;;;;;;5089924;28;19997;-31
2023/10/05 14:29:55;;;;;;;;;;;19.20;99.90;;;;;;5079969;28;19924;-31